Niantic, Illinois
Current Conditions -  °F | °C
As of 1:54 PM on Sunday 23 Nov 2014 (Local Time) from KDEC Reporting Station
Moderate Rain Moderate Rain  
Wind Chill: 51°   Ceiling: 600
Heat Index: 51°   Visibility: 2.5mi
Dew Point: 50°   Wind: 16mph
Humidity: 96%   Direction: 150°SSE
Pressure: 29.48"   Gusts: NA
Location:  39.85°N, 89.17°W
Report Text: KDEC 231954Z 15014KT 2 1/2SM RA BR OVC006 11/10 A2948 RMK AO2 CIG 005V009 SLP983 P0007 T01060100
Loading
Personal Weather Stations






























Interactive Weather Map New forecast layout! Learn more

10-Day Weather Forecast

Advertisements
Track Severe Weather on mobile